Time;durP1;ratioP1;P1;durP2;ratioP2;P2;SDS_P1;SDS_P2;PMS_P1;PMS_P2;Temp;Humidity;BMP_temperature;BMP_pressure;BME280_temperature;BME280_humidity;BME280_pressure;Samples;Min_cycle;Max_cycle;Signal;HPM_P1;HPM_P2
2021/10/20 00:03:01;;;;;;;0.10;0.10;;;;;;;;;;10437692;28;20140;-65
2021/10/20 00:08:08;;;;;;;0.00;0.00;;;;;;;;;;10433549;28;20392;-64
2021/10/20 00:13:13;;;;;;;0.00;0.00;;;;;;;;;;10433927;28;20154;-64
2021/10/20 00:18:16;;;;;;;0.10;0.10;;;;;;;;;;10435360;28;20478;-64
2021/10/20 00:23:19;;;;;;;0.00;0.00;;;;;;;;;;10436983;28;20383;-64
2021/10/20 00:28:23;;;;;;;0.00;0.00;;;;;;;;;;10434554;28;20045;-64
2021/10/20 00:33:26;;;;;;;0.00;0.00;;;;;;;;;;10434272;28;20172;-64
2021/10/20 00:38:30;;;;;;;0.00;0.00;;;;;;;;;;10433550;28;20107;-64
2021/10/20 00:43:34;;;;;;;0.00;0.00;;;;;;;;;;10434883;28;20126;-64
2021/10/20 00:48:37;;;;;;;0.10;0.10;;;;;;;;;;10431301;28;20116;-64
2021/10/20 00:53:39;;;;;;;0.00;0.00;;;;;;;;;;10435717;28;20065;-64
2021/10/20 00:58:44;;;;;;;0.03;0.00;;;;;;;;;;10435856;28;20596;-64
2021/10/20 01:03:46;;;;;;;0.00;0.00;;;;;;;;;;10435225;28;20055;-64
2021/10/20 01:08:49;;;;;;;0.00;0.00;;;;;;;;;;10434970;28;20406;-65
2021/10/20 01:13:53;;;;;;;0.00;0.00;;;;;;;;;;10435077;28;20048;-64
2021/10/20 01:18:56;;;;;;;0.10;0.10;;;;;;;;;;10432507;28;20041;-64
2021/10/20 01:24:00;;;;;;;0.05;0.05;;;;;;;;;;10436733;28;20056;-65
2021/10/20 01:29:04;;;;;;;0.00;0.00;;;;;;;;;;10432462;28;20848;-65
2021/10/20 01:34:07;;;;;;;0.00;0.00;;;;;;;;;;10433407;28;20063;-64
2021/10/20 01:39:11;;;;;;;0.00;0.00;;;;;;;;;;10432851;28;20037;-64
2021/10/20 01:44:14;;;;;;;0.10;0.10;;;;;;;;;;10435210;28;20049;-65
2021/10/20 01:49:17;;;;;;;0.00;0.00;;;;;;;;;;10432217;28;20047;-65
2021/10/20 01:54:25;;;;;;;0.00;0.00;;;;;;;;;;10430209;28;20052;-64
2021/10/20 01:59:28;;;;;;;0.00;0.00;;;;;;;;;;10432794;28;20067;-65
2021/10/20 02:04:31;;;;;;;0.00;0.00;;;;;;;;;;10433358;28;20106;-64
2021/10/20 02:09:36;;;;;;;0.00;0.00;;;;;;;;;;10432581;28;20503;-64
2021/10/20 02:14:41;;;;;;;0.05;0.05;;;;;;;;;;10433279;28;20041;-64
2021/10/20 02:19:43;;;;;;;0.03;0.03;;;;;;;;;;10431652;28;20053;-64
2021/10/20 02:24:47;;;;;;;0.00;0.00;;;;;;;;;;10428683;28;20037;-64
2021/10/20 02:29:50;;;;;;;0.08;0.08;;;;;;;;;;10432458;28;20048;-64
2021/10/20 02:34:54;;;;;;;0.00;0.00;;;;;;;;;;10434157;28;20057;-64
2021/10/20 02:39:58;;;;;;;0.00;0.00;;;;;;;;;;10431342;28;20045;-64
2021/10/20 02:45:01;;;;;;;0.10;0.10;;;;;;;;;;10433617;28;20040;-64
2021/10/20 02:50:05;;;;;;;0.08;0.08;;;;;;;;;;10429447;28;20465;-64
2021/10/20 02:55:16;;;;;;;0.03;0.03;;;;;;;;;;10435907;28;20064;-65
2021/10/20 03:00:19;;;;;;;0.00;0.00;;;;;;;;;;10439961;28;20057;-65
2021/10/20 03:05:21;;;;;;;0.10;0.10;;;;;;;;;;10438547;28;20362;-65
2021/10/20 03:10:26;;;;;;;0.00;0.00;;;;;;;;;;10436260;28;20597;-64
2021/10/20 03:15:31;;;;;;;0.00;0.00;;;;;;;;;;10438769;28;20064;-64
2021/10/20 03:20:35;;;;;;;0.00;0.00;;;;;;;;;;10438190;28;20087;-65
2021/10/20 03:25:39;;;;;;;0.00;0.00;;;;;;;;;;10437861;28;20139;-65
2021/10/20 03:30:42;;;;;;;0.00;0.00;;;;;;;;;;10432277;28;20041;-64
2021/10/20 03:35:45;;;;;;;0.00;0.00;;;;;;;;;;10436182;28;20057;-64
2021/10/20 03:40:49;;;;;;;0.00;0.00;;;;;;;;;;10437911;28;20483;-64
2021/10/20 03:46:11;;;;;;;0.00;0.00;;;;;;;;;;10437754;28;20044;-64
2021/10/20 03:51:18;;;;;;;0.10;0.10;;;;;;;;;;10434419;28;20065;-64
2021/10/20 03:56:23;;;;;;;0.00;0.00;;;;;;;;;;10436077;28;20549;-65
2021/10/20 04:01:26;;;;;;;0.00;0.00;;;;;;;;;;10434311;28;20052;-65
2021/10/20 04:06:30;;;;;;;0.00;0.00;;;;;;;;;;10435831;28;20563;-65
2021/10/20 04:11:34;;;;;;;0.10;0.03;;;;;;;;;;10437154;28;20047;-64
2021/10/20 04:16:37;;;;;;;0.00;0.00;;;;;;;;;;10435150;28;20577;-64
2021/10/20 04:21:40;;;;;;;0.03;0.03;;;;;;;;;;10436483;28;20458;-64
2021/10/20 04:26:45;;;;;;;0.00;0.00;;;;;;;;;;10435235;28;20082;-64
2021/10/20 04:31:48;;;;;;;0.00;0.00;;;;;;;;;;10433092;28;20478;-65
2021/10/20 04:36:50;;;;;;;0.00;0.00;;;;;;;;;;10434777;28;20132;-68
2021/10/20 04:41:55;;;;;;;0.00;0.00;;;;;;;;;;10435287;28;20196;-64
2021/10/20 04:46:57;;;;;;;0.00;0.00;;;;;;;;;;10434533;28;20053;-65
2021/10/20 04:52:00;;;;;;;0.10;0.10;;;;;;;;;;10435914;28;20388;-65
2021/10/20 04:57:04;;;;;;;0.00;0.00;;;;;;;;;;10436341;28;20036;-65
2021/10/20 05:02:07;;;;;;;0.00;0.00;;;;;;;;;;10437358;28;20123;-65
2021/10/20 05:07:11;;;;;;;0.05;0.05;;;;;;;;;;10430971;28;20498;-65
2021/10/20 05:12:17;;;;;;;0.00;0.00;;;;;;;;;;10436214;28;20127;-65
2021/10/20 05:17:19;;;;;;;0.00;0.00;;;;;;;;;;10434950;28;20502;-66
2021/10/20 05:22:22;;;;;;;0.10;0.10;;;;;;;;;;10435770;28;20060;-65
2021/10/20 05:27:26;;;;;;;0.10;0.10;;;;;;;;;;10433141;28;20067;-65
2021/10/20 05:32:30;;;;;;;0.00;0.00;;;;;;;;;;10434173;28;20474;-65
2021/10/20 05:37:33;;;;;;;0.00;0.00;;;;;;;;;;10431798;28;20415;-66
2021/10/20 05:42:37;;;;;;;0.00;0.00;;;;;;;;;;10434289;28;20120;-65
2021/10/20 05:47:40;;;;;;;0.00;0.00;;;;;;;;;;10435196;28;20048;-66
2021/10/20 05:52:43;;;;;;;0.00;0.00;;;;;;;;;;10436698;28;20152;-64
2021/10/20 05:57:47;;;;;;;0.00;0.00;;;;;;;;;;10436174;28;20041;-67
2021/10/20 06:02:50;;;;;;;0.05;0.05;;;;;;;;;;10440449;28;20053;-64
2021/10/20 06:07:53;;;;;;;0.00;0.00;;;;;;;;;;10433235;28;20041;-63
2021/10/20 06:12:57;;;;;;;0.00;0.00;;;;;;;;;;10432199;28;20053;-63
2021/10/20 06:18:01;;;;;;;0.00;0.00;;;;;;;;;;10431564;28;20114;-62
2021/10/20 06:23:04;;;;;;;0.10;0.10;;;;;;;;;;10435384;28;20119;-63
2021/10/20 06:28:12;;;;;;;0.08;0.08;;;;;;;;;;10439090;28;20163;-65
2021/10/20 06:33:15;;;;;;;0.00;0.00;;;;;;;;;;10442714;28;20053;-64
2021/10/20 06:38:18;;;;;;;0.00;0.00;;;;;;;;;;10440816;28;20584;-64
2021/10/20 06:43:22;;;;;;;0.00;0.00;;;;;;;;;;10437124;28;20132;-63
2021/10/20 06:48:26;;;;;;;0.10;0.10;;;;;;;;;;10442411;28;20091;-63
2021/10/20 06:53:28;;;;;;;0.00;0.00;;;;;;;;;;10438342;28;20127;-65
2021/10/20 06:58:33;;;;;;;0.00;0.00;;;;;;;;;;10438859;28;20048;-65
2021/10/20 07:03:36;;;;;;;0.00;0.00;;;;;;;;;;10435099;28;20045;-64
2021/10/20 07:08:42;;;;;;;0.20;0.10;;;;;;;;;;10441253;28;20044;-69
2021/10/20 07:13:46;;;;;;;0.00;0.00;;;;;;;;;;10440803;28;20131;-66
2021/10/20 07:18:49;;;;;;;0.10;0.10;;;;;;;;;;10441429;28;20124;-65
2021/10/20 07:23:52;;;;;;;0.10;0.00;;;;;;;;;;10440981;28;20063;-66
2021/10/20 07:28:56;;;;;;;0.00;0.00;;;;;;;;;;10441025;28;20063;-65
2021/10/20 07:33:59;;;;;;;0.00;0.00;;;;;;;;;;10444128;28;20556;-64
2021/10/20 07:39:02;;;;;;;0.00;0.00;;;;;;;;;;10438139;28;20116;-64
2021/10/20 07:44:06;;;;;;;0.10;0.10;;;;;;;;;;10440108;28;20072;-64
2021/10/20 07:49:10;;;;;;;0.00;0.00;;;;;;;;;;10436430;28;20045;-65
2021/10/20 07:54:13;;;;;;;0.00;0.00;;;;;;;;;;10438068;28;20059;-64
2021/10/20 07:59:17;;;;;;;0.00;0.00;;;;;;;;;;10439688;28;20044;-65
2021/10/20 08:04:20;;;;;;;0.00;0.00;;;;;;;;;;10439223;28;20044;-65
2021/10/20 08:09:23;;;;;;;0.35;0.00;;;;;;;;;;10436626;28;20040;-64
2021/10/20 08:14:29;;;;;;;0.00;0.00;;;;;;;;;;10437885;28;20041;-64
2021/10/20 08:19:32;;;;;;;0.10;0.10;;;;;;;;;;10432526;28;20049;-64
2021/10/20 08:24:35;;;;;;;0.00;0.00;;;;;;;;;;10436789;28;20110;-64
2021/10/20 08:29:39;;;;;;;0.00;0.00;;;;;;;;;;10433487;28;20076;-64
2021/10/20 08:34:42;;;;;;;0.00;0.00;;;;;;;;;;10436274;28;20055;-64
2021/10/20 08:39:45;;;;;;;0.00;0.00;;;;;;;;;;10435673;28;20392;-64
2021/10/20 08:44:49;;;;;;;0.00;0.00;;;;;;;;;;10434955;28;20049;-63
2021/10/20 08:49:52;;;;;;;0.00;0.00;;;;;;;;;;10431534;28;20055;-65
2021/10/20 08:54:56;;;;;;;0.00;0.00;;;;;;;;;;10436757;28;20049;-65
2021/10/20 09:00:02;;;;;;;0.00;0.00;;;;;;;;;;10438086;28;20152;-64
2021/10/20 09:05:06;;;;;;;0.00;0.00;;;;;;;;;;10437009;28;20049;-63
2021/10/20 09:10:08;;;;;;;0.00;0.00;;;;;;;;;;10432562;28;20128;-64
2021/10/20 09:15:17;;;;;;;0.00;0.00;;;;;;;;;;10434117;28;20072;-63
2021/10/20 09:20:25;;;;;;;0.00;0.00;;;;;;;;;;10435138;28;20056;-63
2021/10/20 09:25:32;;;;;;;0.00;0.00;;;;;;;;;;10432844;28;20045;-63
2021/10/20 09:30:39;;;;;;;0.00;0.00;;;;;;;;;;10434678;28;20510;-63
2021/10/20 09:35:42;;;;;;;0.00;0.00;;;;;;;;;;10435528;28;20047;-63
2021/10/20 09:40:46;;;;;;;0.00;0.00;;;;;;;;;;10435428;28;20135;-64
2021/10/20 09:45:50;;;;;;;0.05;0.00;;;;;;;;;;10435272;28;20045;-63
2021/10/20 09:50:58;;;;;;;0.00;0.00;;;;;;;;;;10433582;28;20048;-64
2021/10/20 09:56:02;;;;;;;0.00;0.00;;;;;;;;;;10432454;28;20128;-64
2021/10/20 10:01:06;;;;;;;0.00;0.00;;;;;;;;;;10437530;28;20044;-64
2021/10/20 10:06:09;;;;;;;0.00;0.00;;;;;;;;;;10441778;28;20048;-62
2021/10/20 10:11:12;;;;;;;0.00;0.00;;;;;;;;;;10441967;28;20119;-62
2021/10/20 10:16:16;;;;;;;0.00;0.00;;;;;;;;;;10441771;28;20176;-62
2021/10/20 10:21:28;;;;;;;0.00;0.00;;;;;;;;;;10440798;28;20106;-62
2021/10/20 10:26:34;;;;;;;0.00;0.00;;;;;;;;;;10438625;28;20052;-62
2021/10/20 10:31:41;;;;;;;0.00;0.00;;;;;;;;;;10442538;28;20041;-62
2021/10/20 10:36:50;;;;;;;0.00;0.00;;;;;;;;;;10440042;28;20051;-62
2021/10/20 10:41:57;;;;;;;0.00;0.00;;;;;;;;;;10441978;28;20041;-66
2021/10/20 10:47:21;;;;;;;0.00;0.00;;;;;;;;;;10455646;28;20067;-64
2021/10/20 10:52:33;;;;;;;0.00;0.00;;;;;;;;;;10439127;28;20052;-64
2021/10/20 10:57:37;;;;;;;0.00;0.00;;;;;;;;;;10440772;28;20478;-64
2021/10/20 11:02:41;;;;;;;0.00;0.00;;;;;;;;;;10433776;28;20040;-64
2021/10/20 11:07:46;;;;;;;0.00;0.00;;;;;;;;;;10438791;28;20057;-64
2021/10/20 11:12:49;;;;;;;0.00;0.00;;;;;;;;;;10440009;28;20132;-64
2021/10/20 11:17:52;;;;;;;0.00;0.00;;;;;;;;;;10439983;28;20147;-64
2021/10/20 11:22:58;;;;;;;0.00;0.00;;;;;;;;;;10438208;28;20159;-64
2021/10/20 11:28:00;;;;;;;0.32;0.00;;;;;;;;;;10439061;28;20055;-64
2021/10/20 11:33:06;;;;;;;0.20;0.00;;;;;;;;;;10436244;28;20138;-64
2021/10/20 11:38:12;;;;;;;0.00;0.00;;;;;;;;;;10437302;28;20051;-64
2021/10/20 11:43:17;;;;;;;0.00;0.00;;;;;;;;;;10438539;28;20822;-65
2021/10/20 11:48:22;;;;;;;0.00;0.00;;;;;;;;;;10439291;28;20117;-65
2021/10/20 11:53:28;;;;;;;0.00;0.00;;;;;;;;;;10433851;28;20059;-64
2021/10/20 11:58:33;;;;;;;0.00;0.00;;;;;;;;;;10435648;28;20114;-64
2021/10/20 12:03:36;;;;;;;0.10;0.00;;;;;;;;;;10434535;28;20052;-64
2021/10/20 12:08:43;;;;;;;0.00;0.00;;;;;;;;;;10435998;28;20068;-65
2021/10/20 12:13:46;;;;;;;0.00;0.00;;;;;;;;;;10437896;28;20072;-65
2021/10/20 12:18:49;;;;;;;0.00;0.00;;;;;;;;;;10438886;28;20045;-64
2021/10/20 12:23:56;;;;;;;0.00;0.00;;;;;;;;;;10451519;28;20144;-64
2021/10/20 12:29:01;;;;;;;0.08;0.00;;;;;;;;;;10448144;28;20069;-64
2021/10/20 12:34:05;;;;;;;0.00;0.00;;;;;;;;;;10447239;28;20069;-64
2021/10/20 12:39:10;;;;;;;0.00;0.00;;;;;;;;;;10447926;28;20045;-64
2021/10/20 12:44:13;;;;;;;0.08;0.00;;;;;;;;;;10439388;28;20164;-64
2021/10/20 12:49:16;;;;;;;0.00;0.00;;;;;;;;;;10441123;28;20129;-65
2021/10/20 12:54:22;;;;;;;0.00;0.00;;;;;;;;;;10442327;28;20525;-64
2021/10/20 12:59:28;;;;;;;0.05;0.05;;;;;;;;;;10428913;28;20567;-67
2021/10/20 13:04:31;;;;;;;0.00;0.00;;;;;;;;;;10447132;28;20048;-64
2021/10/20 13:09:35;;;;;;;0.00;0.00;;;;;;;;;;10452476;28;20487;-65
2021/10/20 13:14:38;;;;;;;0.00;0.00;;;;;;;;;;10433616;28;20059;-65
2021/10/20 13:19:41;;;;;;;0.00;0.00;;;;;;;;;;10445522;28;20160;-66
2021/10/20 13:24:45;;;;;;;0.00;0.00;;;;;;;;;;10412413;28;20506;-66
2021/10/20 13:29:48;;;;;;;0.00;0.00;;;;;;;;;;10410352;28;20148;-66
2021/10/20 13:34:50;;;;;;;0.00;0.00;;;;;;;;;;10404761;28;20172;-65
2021/10/20 13:39:56;;;;;;;0.00;0.00;;;;;;;;;;10388612;28;20860;-66
2021/10/20 13:45:04;;;;;;;0.00;0.00;;;;;;;;;;10413241;28;20069;-65
2021/10/20 13:50:08;;;;;;;0.00;0.00;;;;;;;;;;10409316;28;20047;-65
2021/10/20 13:55:14;;;;;;;0.00;0.00;;;;;;;;;;10406330;28;20045;-66
2021/10/20 14:00:17;;;;;;;0.00;0.00;;;;;;;;;;10404036;28;20056;-65
2021/10/20 14:05:23;;;;;;;0.10;0.00;;;;;;;;;;10414199;28;20041;-65
2021/10/20 14:10:28;;;;;;;0.00;0.00;;;;;;;;;;10411607;28;20033;-70
2021/10/20 14:15:31;;;;;;;0.00;0.00;;;;;;;;;;10405615;28;20126;-68
2021/10/20 14:20:34;;;;;;;0.00;0.00;;;;;;;;;;10422871;28;20041;-66
2021/10/20 14:25:39;;;;;;;0.00;0.00;;;;;;;;;;10440822;28;20051;-70
2021/10/20 14:30:42;;;;;;;0.00;0.00;;;;;;;;;;10438767;28;20452;-66
2021/10/20 14:35:44;;;;;;;0.00;0.00;;;;;;;;;;10438813;28;20044;-69
2021/10/20 14:40:53;;;;;;;0.00;0.00;;;;;;;;;;10437266;28;20550;-67
2021/10/20 14:45:56;;;;;;;0.10;0.00;;;;;;;;;;10426434;28;20091;-64
2021/10/20 14:50:59;;;;;;;0.00;0.00;;;;;;;;;;10445193;28;20064;-65
2021/10/20 14:56:03;;;;;;;0.00;0.00;;;;;;;;;;10443974;28;20126;-69
2021/10/20 15:01:07;;;;;;;0.00;0.00;;;;;;;;;;10436750;28;21039;-65
2021/10/20 15:06:12;;;;;;;0.10;0.10;;;;;;;;;;10452010;28;20057;-64
2021/10/20 15:11:18;;;;;;;0.00;0.00;;;;;;;;;;10452273;28;20044;-62
2021/10/20 15:16:22;;;;;;;0.00;0.00;;;;;;;;;;10459753;28;20048;-63
2021/10/20 15:21:26;;;;;;;0.00;0.00;;;;;;;;;;10455163;28;20451;-63
2021/10/20 15:26:30;;;;;;;0.10;0.05;;;;;;;;;;10467184;28;20059;-63
2021/10/20 15:31:33;;;;;;;0.00;0.00;;;;;;;;;;10470969;28;20406;-63
2021/10/20 15:36:37;;;;;;;0.00;0.00;;;;;;;;;;10449543;28;20163;-63
2021/10/20 15:41:41;;;;;;;0.00;0.00;;;;;;;;;;10458505;28;20059;-63
2021/10/20 15:46:45;;;;;;;0.00;0.00;;;;;;;;;;10457764;28;20473;-63
2021/10/20 15:51:48;;;;;;;0.00;0.00;;;;;;;;;;10447153;28;20043;-64
2021/10/20 16:03:02;;;;;;;0.00;0.00;;;;;;;;;;10453196;28;20024;-65
2021/10/20 16:08:06;;;;;;;0.00;0.00;;;;;;;;;;10450218;28;20048;-64
2021/10/20 16:13:09;;;;;;;0.00;0.00;;;;;;;;;;10451096;28;20045;-66
2021/10/20 16:18:14;;;;;;;0.00;0.00;;;;;;;;;;10449583;28;20522;-62
2021/10/20 16:23:17;;;;;;;0.00;0.00;;;;;;;;;;10438037;28;20056;-63
2021/10/20 16:28:20;;;;;;;0.00;0.00;;;;;;;;;;10443805;28;20047;-64
2021/10/20 16:33:24;;;;;;;0.00;0.00;;;;;;;;;;10442890;28;20384;-62
2021/10/20 16:38:28;;;;;;;0.10;0.00;;;;;;;;;;10442640;28;21053;-63
2021/10/20 16:43:30;;;;;;;0.10;0.10;;;;;;;;;;10427459;28;20122;-62
2021/10/20 16:48:35;;;;;;;0.00;0.00;;;;;;;;;;10439977;28;20515;-64
2021/10/20 16:53:38;;;;;;;0.00;0.00;;;;;;;;;;10433387;28;20045;-63
2021/10/20 16:58:43;;;;;;;0.00;0.00;;;;;;;;;;10450377;28;20068;-63
2021/10/20 17:03:48;;;;;;;0.00;0.00;;;;;;;;;;10451892;28;20044;-66
2021/10/20 17:08:51;;;;;;;0.00;0.00;;;;;;;;;;10476579;28;20707;-67
2021/10/20 17:13:54;;;;;;;0.00;0.00;;;;;;;;;;10461249;28;20037;-70
2021/10/20 17:19:00;;;;;;;0.30;0.00;;;;;;;;;;10457862;28;20160;-64
2021/10/20 17:24:04;;;;;;;0.00;0.00;;;;;;;;;;10396262;28;20052;-64
2021/10/20 17:29:09;;;;;;;0.00;0.00;;;;;;;;;;10390226;28;20044;-64
2021/10/20 17:34:38;;;;;;;0.00;0.00;;;;;;;;;;10392558;28;20041;-66
2021/10/20 17:39:44;;;;;;;0.00;0.00;;;;;;;;;;10394497;28;20080;-68
2021/10/20 17:45:08;;;;;;;0.00;0.00;;;;;;;;;;10397252;28;20507;-68
2021/10/20 17:50:15;;;;;;;0.00;0.00;;;;;;;;;;10395432;28;20128;-69
2021/10/20 17:55:18;;;;;;;0.00;0.00;;;;;;;;;;10382136;28;20046;-67
2021/10/20 18:00:21;;;;;;;0.00;0.00;;;;;;;;;;10388224;28;20384;-62
2021/10/20 18:05:27;;;;;;;0.00;0.00;;;;;;;;;;10391666;28;20045;-64
2021/10/20 18:10:31;;;;;;;0.00;0.00;;;;;;;;;;10391969;28;20037;-64
2021/10/20 18:15:34;;;;;;;0.50;0.10;;;;;;;;;;10390298;28;20037;-64
2021/10/20 18:20:38;;;;;;;0.00;0.00;;;;;;;;;;10382073;28;20653;-66
2021/10/20 18:25:42;;;;;;;0.00;0.00;;;;;;;;;;10397217;28;20057;-65
2021/10/20 18:30:46;;;;;;;0.00;0.00;;;;;;;;;;10408954;28;20041;-65
2021/10/20 18:35:50;;;;;;;0.00;0.00;;;;;;;;;;10398606;28;20526;-66
2021/10/20 18:40:53;;;;;;;0.00;0.00;;;;;;;;;;10400271;28;20156;-64
2021/10/20 18:45:56;;;;;;;0.00;0.00;;;;;;;;;;10408846;28;20043;-65
2021/10/20 18:51:00;;;;;;;0.00;0.00;;;;;;;;;;10403739;28;20053;-64
2021/10/20 18:56:03;;;;;;;0.00;0.00;;;;;;;;;;10402221;28;20537;-65
2021/10/20 19:01:06;;;;;;;0.00;0.00;;;;;;;;;;10430097;28;20049;-67
2021/10/20 19:06:16;;;;;;;0.00;0.00;;;;;;;;;;10416380;28;20042;-66
2021/10/20 19:11:20;;;;;;;0.00;0.00;;;;;;;;;;10401432;28;20037;-65
2021/10/20 19:16:23;;;;;;;0.00;0.00;;;;;;;;;;10427056;28;20173;-64
2021/10/20 19:21:29;;;;;;;0.20;0.00;;;;;;;;;;10437132;28;20045;-64
2021/10/20 19:26:41;;;;;;;0.05;0.05;;;;;;;;;;10462133;28;20060;-66
2021/10/20 19:31:46;;;;;;;0.00;0.00;;;;;;;;;;10459219;28;20037;-66
2021/10/20 19:36:50;;;;;;;0.00;0.00;;;;;;;;;;10447605;28;20124;-67
2021/10/20 19:41:53;;;;;;;0.20;0.10;;;;;;;;;;10460245;28;20114;-67
2021/10/20 19:46:56;;;;;;;0.00;0.00;;;;;;;;;;10451110;28;20045;-66
2021/10/20 19:52:05;;;;;;;0.00;0.00;;;;;;;;;;10458662;28;20729;-67
2021/10/20 19:57:08;;;;;;;0.00;0.00;;;;;;;;;;10449499;28;20135;-65
2021/10/20 20:02:12;;;;;;;0.00;0.00;;;;;;;;;;10436304;28;20041;-67
2021/10/20 20:07:17;;;;;;;0.00;0.00;;;;;;;;;;10442485;28;20480;-67
2021/10/20 20:12:19;;;;;;;0.00;0.00;;;;;;;;;;10439086;28;20039;-67
2021/10/20 20:17:24;;;;;;;0.00;0.00;;;;;;;;;;10433988;28;20450;-68
2021/10/20 20:22:28;;;;;;;0.00;0.00;;;;;;;;;;10439268;28;20033;-67
2021/10/20 20:27:32;;;;;;;0.00;0.00;;;;;;;;;;10440922;28;20033;-65
2021/10/20 20:32:35;;;;;;;0.10;0.10;;;;;;;;;;10429228;28;20143;-66
2021/10/20 20:37:40;;;;;;;0.00;0.00;;;;;;;;;;10441186;28;20522;-65
2021/10/20 20:42:42;;;;;;;0.00;0.00;;;;;;;;;;10448311;28;20049;-66
2021/10/20 20:47:45;;;;;;;0.00;0.00;;;;;;;;;;10448111;28;20049;-66
2021/10/20 20:52:50;;;;;;;0.00;0.00;;;;;;;;;;10426962;28;20512;-66
2021/10/20 20:58:19;;;;;;;0.00;0.00;;;;;;;;;;10448876;28;20047;-66
2021/10/20 21:03:23;;;;;;;0.00;0.00;;;;;;;;;;10438697;28;20037;-64
2021/10/20 21:08:28;;;;;;;0.08;0.00;;;;;;;;;;10438562;28;20048;-64
2021/10/20 21:13:32;;;;;;;0.00;0.00;;;;;;;;;;10436338;28;20142;-64
2021/10/20 21:18:36;;;;;;;0.00;0.00;;;;;;;;;;10437910;28;20067;-64
2021/10/20 21:23:42;;;;;;;0.00;0.00;;;;;;;;;;10460499;28;20124;-65
2021/10/20 21:28:46;;;;;;;0.00;0.00;;;;;;;;;;10465170;28;20398;-64
2021/10/20 21:33:49;;;;;;;0.10;0.10;;;;;;;;;;10441056;28;20139;-65
2021/10/20 21:38:55;;;;;;;0.00;0.00;;;;;;;;;;10457409;28;20056;-64
2021/10/20 21:44:00;;;;;;;0.00;0.00;;;;;;;;;;10448757;28;20122;-65
2021/10/20 21:49:04;;;;;;;0.00;0.00;;;;;;;;;;10447106;28;20046;-64
2021/10/20 21:54:11;;;;;;;0.00;0.00;;;;;;;;;;10444366;28;20049;-64
2021/10/20 21:59:16;;;;;;;0.00;0.00;;;;;;;;;;10448088;28;20041;-64
2021/10/20 22:04:21;;;;;;;0.00;0.00;;;;;;;;;;10462692;28;20041;-64
2021/10/20 22:09:25;;;;;;;0.00;0.00;;;;;;;;;;10451498;28;20044;-64
2021/10/20 22:14:30;;;;;;;0.00;0.00;;;;;;;;;;10455736;28;20137;-64
2021/10/20 22:19:38;;;;;;;0.00;0.00;;;;;;;;;;10456112;28;20056;-64
2021/10/20 22:24:45;;;;;;;0.00;0.00;;;;;;;;;;10452159;28;20040;-65
2021/10/20 22:29:48;;;;;;;0.00;0.00;;;;;;;;;;10449029;28;20048;-64
2021/10/20 22:34:53;;;;;;;0.00;0.00;;;;;;;;;;10435410;28;20478;-64
2021/10/20 22:39:59;;;;;;;0.00;0.00;;;;;;;;;;10437562;28;20047;-64
2021/10/20 22:45:01;;;;;;;0.00;0.00;;;;;;;;;;10442831;28;20041;-64
2021/10/20 22:50:05;;;;;;;0.00;0.00;;;;;;;;;;10441187;28;20037;-64
2021/10/20 22:55:11;;;;;;;0.00;0.00;;;;;;;;;;10439884;28;20025;-64
2021/10/20 23:00:15;;;;;;;0.00;0.00;;;;;;;;;;10438416;28;20119;-64
2021/10/20 23:05:20;;;;;;;0.00;0.00;;;;;;;;;;10435375;28;20037;-64
2021/10/20 23:10:24;;;;;;;0.00;0.00;;;;;;;;;;10434931;28;20065;-64
2021/10/20 23:15:28;;;;;;;0.00;0.00;;;;;;;;;;10438016;28;20136;-65
2021/10/20 23:20:31;;;;;;;0.00;0.00;;;;;;;;;;10452773;28;20494;-66
2021/10/20 23:25:35;;;;;;;0.00;0.00;;;;;;;;;;10431896;28;20048;-65
2021/10/20 23:30:41;;;;;;;0.45;0.00;;;;;;;;;;10444609;28;20051;-65
2021/10/20 23:35:44;;;;;;;0.00;0.00;;;;;;;;;;10439963;28;20037;-65
2021/10/20 23:40:48;;;;;;;0.00;0.00;;;;;;;;;;10444844;28;20045;-65
2021/10/20 23:45:52;;;;;;;0.00;0.00;;;;;;;;;;10442188;28;20153;-65
2021/10/20 23:50:56;;;;;;;0.00;0.00;;;;;;;;;;10444544;28;20048;-66
2021/10/20 23:56:01;;;;;;;0.00;0.00;;;;;;;;;;10448723;28;20176;-66
